Create Tblcommutelog Verified Points Advance Search
| # | Trip ID | Id Commuter | Trip Date | Trip Num | Current Lat | Current Lng | Delta Distance | Current Time | Activity | Activity Confidence | Current Speed | |
|---|---|---|---|---|---|---|---|---|---|---|---|---|
| 69441 | 260218_789706_16507319_0655 | 789706 | (not set) | (not set) | 38.887033255302 | -77.095325577171 | 8.184 | 2026-02-18 07:27:10 | still | 33 | -0.44703925898772 | |
| 69442 | 260218_746136_16659389_0720 | 746136 | (not set) | (not set) | 38.701920652824 | -76.875996318435 | 2.2637 | 2026-02-18 07:27:11 | in_vehicle | 100 | 2.0653213765233 | |
| 69443 | 260218_746136_16659389_0720 | 746136 | (not set) | (not set) | 38.701920652824 | -76.875996318435 | 2.2637 | 2026-02-18 07:27:11 | in_vehicle | 100 | 2.0653213765233 | |
| 69444 | 260218_720669_16491788_0703 | 720669 | (not set) | (not set) | 38.799883 | -77.0197586 | 12.5982 | 2026-02-18 07:27:11 | in_vehicle | 100 | 1.931209598827 | |
| 69445 | 260218_720669_16491788_0703 | 720669 | (not set) | (not set) | 38.799883 | -77.0197586 | 12.5982 | 2026-02-18 07:27:11 | in_vehicle | 100 | 1.931209598827 | |
| 69446 | 260218_791815_16517127_0705 | 791815 | (not set) | (not set) | 38.860921186578 | -77.351945920664 | 12.141 | 2026-02-18 07:27:11 | still | 33 | 4.3094584566417 | |
| 69447 | 260218_776287_16511635_0656 | 776287 | (not set) | (not set) | 38.885244126453 | -77.022081898888 | 4.824 | 2026-02-18 07:27:11 | on_foot | 100 | 0.13858217028619 | |
| 69448 | 260218_776287_16511635_0656 | 776287 | (not set) | (not set) | 38.885244126453 | -77.022081898888 | 4.824 | 2026-02-18 07:27:11 | on_foot | 100 | 0.13858217028619 | |
| 69449 | 260218_785674_6441454_0700 | 785674 | (not set) | (not set) | 39.236374904249 | -77.288767049916 | 16.5646 | 2026-02-18 07:27:11 | in_vehicle | 100 | 12.338283548061 | |
| 69450 | 260218_786124_6441454_0703 | 786124 | (not set) | (not set) | 39.23597408929 | -77.288419180673 | 15.8674 | 2026-02-18 07:27:13 | in_vehicle | 100 | 12.418750614679 | |
| 69451 | 260218_776287_16511635_0656 | 776287 | (not set) | (not set) | 38.885141950434 | -77.021213757253 | 4.8714 | 2026-02-18 07:27:13 | on_foot | 100 | 0.026822355539263 | |
| 69452 | 260218_776287_16511635_0656 | 776287 | (not set) | (not set) | 38.885141950434 | -77.021213757253 | 4.8714 | 2026-02-18 07:27:13 | on_foot | 100 | 0.026822355539263 | |
| 69453 | 260218_790801_16444065_0717 | 790801 | (not set) | (not set) | 39.292115244128 | -76.551452531677 | 1.9752 | 2026-02-18 07:27:14 | in_vehicle | 100 | 3.3974983683067 | |
| 69454 | 260218_772259_16460160_0701 | 772259 | (not set) | (not set) | 38.9520655 | -77.0681381 | 8.0752 | 2026-02-18 07:27:14 | in_vehicle | 100 | 4.6447379008825 | |
| 69455 | 260218_776287_16511635_0656 | 776287 | (not set) | (not set) | 38.885237924798 | -77.022083215138 | 4.9187 | 2026-02-18 07:27:14 | on_foot | 100 | 0.20116766654448 | |
| 69456 | 260218_776287_16511635_0656 | 776287 | (not set) | (not set) | 38.885237924798 | -77.022083215138 | 4.9187 | 2026-02-18 07:27:14 | on_foot | 100 | 0.20116766654448 | |
| 69457 | 260218_769517_16476299_0725 | 769517 | (not set) | (not set) | 38.796838564022 | -77.048836759953 | 0.0862 | 2026-02-18 07:27:15 | on_foot | 100 | 0.7465555625095 | |
| 69458 | 260218_784917_16428364_0635 | 784917 | (not set) | (not set) | 38.946050893328 | -77.317981878035 | 24.3232 | 2026-02-18 07:27:15 | in_vehicle | 100 | 14.430427280124 | |
| 69459 | 260218_790397_16483285_0634 | 790397 | (not set) | (not set) | 38.668980782082 | -77.238993691383 | 30.5589 | 2026-02-18 07:27:15 | in_vehicle | 100 | 9.3833540461523 | |
| 69460 | 260218_784272_6461772_0727 | 784272 | (not set) | (not set) | 38.802775301332 | -77.237088186239 | 0 | 2026-02-18 07:27:15 | unknown | 100 | -0.44703925898772 |